createdAt,value
2019-01-31T00:00:34.104Z,4.75
2019-01-31T00:03:33.128Z,5.20
2019-01-31T00:06:11.337Z,6.12
2019-01-31T00:09:21.653Z,6.30
2019-01-31T00:12:16.989Z,4.67
2019-01-31T00:19:01.513Z,6.22
2019-01-31T00:22:04.800Z,6.85
2019-01-31T00:28:38.558Z,9.35
2019-01-31T00:32:02.701Z,8.68
2019-01-31T00:35:21.431Z,21.45
2019-01-31T00:38:17.828Z,12.60
2019-01-31T00:41:10.170Z,25.37
2019-01-31T00:44:34.120Z,41.05
2019-01-31T00:47:26.449Z,25.08
2019-01-31T00:50:27.524Z,22.15
2019-01-31T00:53:18.092Z,16.85
2019-01-31T00:56:28.854Z,29.30
2019-01-31T00:59:18.909Z,35.38
2019-01-31T01:02:15.534Z,14.20
2019-01-31T01:04:54.022Z,22.65
2019-01-31T01:07:51.343Z,11.35
2019-01-31T01:10:44.408Z,13.13
2019-01-31T01:13:40.625Z,9.88
2019-01-31T01:16:33.085Z,8.30
2019-01-31T01:19:22.861Z,9.80
2019-01-31T01:22:35.374Z,6.55
2019-01-31T01:25:33.300Z,8.73
2019-01-31T01:28:38.085Z,5.37
2019-01-31T01:31:21.789Z,9.20
2019-01-31T01:34:42.524Z,11.65
2019-01-31T01:38:00.581Z,10.08
2019-01-31T01:40:40.656Z,11.03
2019-01-31T01:43:32.511Z,11.90
2019-01-31T01:46:37.890Z,12.53
2019-01-31T01:49:24.762Z,17.32
2019-01-31T01:52:23.957Z,15.98
2019-01-31T01:55:17.712Z,12.90
2019-01-31T01:58:31.570Z,11.22
2019-01-31T02:01:44.816Z,15.80
2019-01-31T02:04:53.701Z,14.60
2019-01-31T02:07:53.506Z,7.75
2019-01-31T02:10:49.348Z,8.33
2019-01-31T02:13:51.088Z,10.88
2019-01-31T02:17:04.293Z,14.13
2019-01-31T02:20:10.369Z,10.50
2019-01-31T02:23:03.865Z,9.70
2019-01-31T02:25:42.865Z,4.20
2019-01-31T02:28:23.710Z,10.45
2019-01-31T02:31:15.894Z,4.70
2019-01-31T02:34:00.444Z,8.20
2019-01-31T02:36:56.785Z,6.80
2019-01-31T02:40:04.025Z,6.45
2019-01-31T02:42:48.311Z,5.03
2019-01-31T02:45:45.160Z,6.65
2019-01-31T02:48:33.253Z,7.37
2019-01-31T02:51:37.932Z,9.13
2019-01-31T02:54:18.373Z,17.67
2019-01-31T02:57:29.721Z,39.60
2019-01-31T03:00:26.226Z,33.88
2019-01-31T03:03:48.854Z,36.48
2019-01-31T03:06:57.832Z,23.57
2019-01-31T03:09:55.237Z,25.80
2019-01-31T03:12:40.320Z,9.05
2019-01-31T03:15:27.150Z,9.45
2019-01-31T03:18:17.016Z,15.58
2019-01-31T03:21:27.594Z,9.35
2019-01-31T03:24:13.600Z,4.42
2019-01-31T03:26:58.022Z,4.15
2019-01-31T03:29:54.896Z,7.83
2019-01-31T03:32:41.303Z,12.20
2019-01-31T03:35:40.200Z,7.03
2019-01-31T03:38:19.053Z,14.73
2019-01-31T03:41:27.357Z,7.53
2019-01-31T03:44:19.332Z,5.53
2019-01-31T03:47:16.818Z,7.97
2019-01-31T03:50:14.438Z,7.15
2019-01-31T03:53:10.841Z,5.47
2019-01-31T03:56:07.093Z,4.22
2019-01-31T03:58:59.936Z,6.58
2019-01-31T04:02:14.902Z,6.58
2019-01-31T04:04:59.831Z,3.80
2019-01-31T04:07:26.868Z,5.33
2019-01-31T04:09:54.136Z,4.08
2019-01-31T04:12:20.985Z,6.72
2019-01-31T04:14:47.801Z,4.08
2019-01-31T04:17:14.714Z,10.88
2019-01-31T04:19:41.536Z,6.28
2019-01-31T04:22:08.566Z,8.43
2019-01-31T04:24:35.399Z,6.33
2019-01-31T04:27:02.295Z,7.40
2019-01-31T04:29:29.217Z,7.22
2019-01-31T04:31:56.245Z,6.12
2019-01-31T04:34:23.481Z,7.42
2019-01-31T04:36:50.670Z,9.33
2019-01-31T04:39:17.480Z,9.33
2019-01-31T04:41:44.403Z,8.23
2019-01-31T04:44:11.213Z,6.95
2019-01-31T04:46:38.024Z,9.10
2019-01-31T04:49:05.215Z,13.78
2019-01-31T04:51:32.137Z,6.67
2019-01-31T04:53:58.950Z,12.13
2019-01-31T04:56:25.974Z,9.03
2019-01-31T04:58:52.768Z,4.97
2019-01-31T05:01:19.936Z,6.85
2019-01-31T05:03:46.858Z,6.25
2019-01-31T05:06:14.027Z,8.63
2019-01-31T05:08:40.937Z,8.03
2019-01-31T05:11:08.129Z,5.42
2019-01-31T05:13:35.212Z,14.95
2019-01-31T05:16:03.635Z,8.80
2019-01-31T05:18:30.969Z,16.27
2019-01-31T05:20:57.769Z,8.08
2019-01-31T05:23:24.838Z,11.43
2019-01-31T05:25:51.646Z,7.22
2019-01-31T05:28:18.573Z,14.25
2019-01-31T05:30:45.672Z,8.93
2019-01-31T05:33:12.601Z,9.95
2019-01-31T05:35:39.649Z,17.40
2019-01-31T05:38:06.753Z,16.10
2019-01-31T05:40:33.837Z,20.40
2019-01-31T05:43:00.932Z,17.25
2019-01-31T05:45:27.862Z,12.78
2019-01-31T05:47:54.687Z,11.70
2019-01-31T05:50:21.890Z,15.05
2019-01-31T05:52:48.982Z,32.93
2019-01-31T05:55:15.902Z,21.55
2019-01-31T05:57:43.133Z,11.28
2019-01-31T06:00:13.721Z,8.70
2019-01-31T06:02:40.538Z,10.00
2019-01-31T06:05:08.027Z,10.13
2019-01-31T06:07:34.834Z,16.73
2019-01-31T06:10:02.034Z,19.02
2019-01-31T06:12:28.844Z,33.40
2019-01-31T06:14:55.937Z,31.37
2019-01-31T06:17:22.850Z,21.05
2019-01-31T06:19:49.681Z,14.33
2019-01-31T06:22:16.868Z,11.45
2019-01-31T06:24:43.805Z,7.35
2019-01-31T06:27:10.725Z,54.05
2019-01-31T06:29:37.649Z,33.23
2019-01-31T06:32:04.817Z,27.35
2019-01-31T06:34:31.644Z,63.00
2019-01-31T06:36:58.469Z,64.12
2019-01-31T06:39:25.545Z,68.87
2019-01-31T06:41:52.829Z,33.08
2019-01-31T06:44:19.660Z,74.62
2019-01-31T06:46:46.552Z,50.15
2019-01-31T06:49:13.729Z,32.58
2019-01-31T06:51:40.988Z,48.65
2019-01-31T06:54:07.911Z,53.28
2019-01-31T06:56:34.825Z,27.80
2019-01-31T06:59:01.650Z,11.22
2019-01-31T07:01:28.460Z,10.30
2019-01-31T07:03:55.374Z,7.83
2019-01-31T07:06:22.327Z,5.25
2019-01-31T07:08:53.614Z,4.28
2019-01-31T07:11:29.560Z,10.23
2019-01-31T07:13:49.336Z,15.65
2019-01-31T07:16:16.157Z,14.07
2019-01-31T07:18:43.225Z,5.60
2019-01-31T07:21:10.041Z,7.83
2019-01-31T07:23:37.209Z,8.58
2019-01-31T07:26:04.233Z,8.78
2019-01-31T07:28:31.239Z,6.22
2019-01-31T07:30:58.540Z,13.18
2019-01-31T07:33:25.554Z,9.05
2019-01-31T07:35:52.474Z,9.08
2019-01-31T07:38:19.499Z,10.28
2019-01-31T07:40:46.604Z,7.75
2019-01-31T07:43:13.514Z,7.95
2019-01-31T07:45:40.450Z,6.47
2019-01-31T07:48:07.609Z,6.15
2019-01-31T07:50:34.626Z,9.58
2019-01-31T07:53:01.899Z,9.28
2019-01-31T07:55:29.004Z,12.98
2019-01-31T07:57:55.813Z,12.50
2019-01-31T08:00:23.033Z,11.63
2019-01-31T08:02:50.056Z,15.68
2019-01-31T08:05:18.857Z,18.27
2019-01-31T08:07:46.417Z,21.45
2019-01-31T08:10:15.882Z,33.50
2019-01-31T08:12:42.801Z,29.40
2019-01-31T08:15:11.500Z,28.38
2019-01-31T08:17:38.572Z,24.25
2019-01-31T08:20:05.917Z,16.25
2019-01-31T08:22:32.850Z,26.12
2019-01-31T08:24:59.864Z,18.12
2019-01-31T08:27:26.789Z,18.12
2019-01-31T08:29:53.716Z,16.73
2019-01-31T08:32:20.539Z,18.80
2019-01-31T08:34:47.707Z,24.40
2019-01-31T08:37:14.641Z,15.15
2019-01-31T08:39:41.458Z,13.72
2019-01-31T08:42:08.385Z,22.45
2019-01-31T08:44:35.193Z,13.55
2019-01-31T08:47:02.014Z,16.45
2019-01-31T08:49:29.108Z,20.52
2019-01-31T08:51:56.237Z,18.15
2019-01-31T08:54:23.332Z,9.65
2019-01-31T08:56:50.357Z,21.82
2019-01-31T08:59:17.521Z,14.35
2019-01-31T09:01:44.434Z,17.05
2019-01-31T09:04:11.270Z,7.47
2019-01-31T09:06:38.192Z,7.95
2019-01-31T09:09:09.153Z,10.30
2019-01-31T09:11:36.070Z,5.75
2019-01-31T09:14:03.101Z,7.40
2019-01-31T09:16:30.108Z,15.50
2019-01-31T09:18:57.449Z,20.65
2019-01-31T09:21:49.985Z,19.42
2019-01-31T09:24:37.781Z,14.35
2019-01-31T09:27:37.137Z,10.80
2019-01-31T09:30:20.653Z,10.18
2019-01-31T09:32:58.608Z,12.78
2019-01-31T09:35:52.108Z,11.88
2019-01-31T09:39:08.910Z,9.38
2019-01-31T09:41:43.830Z,8.05
2019-01-31T09:44:39.405Z,6.25
2019-01-31T09:47:43.590Z,9.95
2019-01-31T09:50:34.513Z,6.58
2019-01-31T09:53:42.210Z,7.45
2019-01-31T09:56:40.538Z,8.45
2019-01-31T09:59:33.714Z,12.25
2019-01-31T10:02:45.209Z,8.18
2019-01-31T10:05:37.801Z,5.47
2019-01-31T10:08:33.977Z,7.12
2019-01-31T10:11:25.036Z,5.80
2019-01-31T10:14:39.219Z,6.33
2019-01-31T10:17:52.648Z,6.12
2019-01-31T10:20:49.588Z,7.42
2019-01-31T10:23:34.390Z,6.78
2019-01-31T10:26:44.158Z,94.95
2019-01-31T10:29:34.572Z,12.80
2019-01-31T10:32:42.177Z,8.83
2019-01-31T10:35:46.685Z,8.20
2019-01-31T10:39:01.606Z,5.37
2019-01-31T10:41:48.773Z,5.30
2019-01-31T10:44:38.392Z,6.75
2019-01-31T10:47:38.457Z,5.53
2019-01-31T10:50:52.296Z,4.92
2019-01-31T10:53:49.640Z,5.50
2019-01-31T10:56:58.809Z,3.05
2019-01-31T10:59:56.276Z,4.00
2019-01-31T11:02:57.896Z,5.45
2019-01-31T11:05:34.955Z,7.87
2019-01-31T11:09:05.549Z,3.40
2019-01-31T11:11:53.921Z,3.35
2019-01-31T11:15:00.038Z,4.67
2019-01-31T11:18:04.959Z,5.10
2019-01-31T11:20:52.392Z,3.27
2019-01-31T11:23:35.225Z,5.30
2019-01-31T11:26:34.109Z,6.53
2019-01-31T11:29:43.073Z,3.15
2019-01-31T11:32:39.109Z,5.15
2019-01-31T11:35:36.973Z,12.47
2019-01-31T11:38:17.277Z,3.55
2019-01-31T11:41:06.570Z,5.17
2019-01-31T11:43:59.142Z,4.28
2019-01-31T11:47:12.604Z,3.80
2019-01-31T11:50:29.580Z,5.28
2019-01-31T11:53:22.297Z,4.75
2019-01-31T11:56:28.533Z,8.28
2019-01-31T11:59:00.917Z,4.00
2019-01-31T12:01:28.120Z,8.70
2019-01-31T12:04:04.951Z,5.15
2019-01-31T12:06:32.171Z,6.78
2019-01-31T12:08:59.198Z,5.87
2019-01-31T12:11:26.719Z,5.15
2019-01-31T12:13:54.029Z,6.12
2019-01-31T12:16:21.042Z,6.25
2019-01-31T12:18:48.265Z,6.22
2019-01-31T12:21:15.312Z,4.30
2019-01-31T12:23:42.546Z,4.58
2019-01-31T12:26:09.566Z,7.08
2019-01-31T12:28:36.592Z,7.10
2019-01-31T12:31:03.809Z,6.28
2019-01-31T12:33:31.171Z,4.60
2019-01-31T12:35:58.434Z,6.55
2019-01-31T12:38:36.270Z,4.50
2019-01-31T12:40:54.183Z,4.45
2019-01-31T12:43:21.113Z,4.30
2019-01-31T12:45:47.929Z,5.00
2019-01-31T12:48:14.965Z,7.83
2019-01-31T12:50:41.969Z,6.85
2019-01-31T12:53:08.910Z,5.37
2019-01-31T12:55:35.924Z,6.25
2019-01-31T12:58:03.479Z,11.25
2019-01-31T13:00:30.559Z,4.55
2019-01-31T13:02:57.722Z,4.03
2019-01-31T13:05:25.505Z,6.45
2019-01-31T13:07:52.821Z,5.25
2019-01-31T13:10:19.859Z,8.65
2019-01-31T13:12:48.809Z,10.25
2019-01-31T13:15:16.565Z,5.55
2019-01-31T13:17:43.664Z,5.40
2019-01-31T13:20:16.259Z,8.40
2019-01-31T13:22:43.520Z,11.35
2019-01-31T13:25:11.005Z,7.50
2019-01-31T13:27:38.037Z,8.30
2019-01-31T13:30:06.448Z,4.22
2019-01-31T13:32:33.378Z,6.72
2019-01-31T13:35:00.201Z,7.03
2019-01-31T13:37:27.121Z,7.45
2019-01-31T13:39:54.317Z,5.62
2019-01-31T13:42:21.698Z,7.90
2019-01-31T13:44:48.533Z,4.08
2019-01-31T13:47:15.830Z,4.62
2019-01-31T13:49:43.117Z,4.72
2019-01-31T13:52:10.225Z,5.17
2019-01-31T13:54:37.514Z,6.60
2019-01-31T13:57:04.550Z,5.65
2019-01-31T13:59:31.520Z,4.80
2019-01-31T14:01:58.444Z,6.12
2019-01-31T14:04:25.440Z,5.30
2019-01-31T14:06:52.624Z,10.03
2019-01-31T14:09:19.920Z,4.30
2019-01-31T14:11:46.845Z,5.33
2019-01-31T14:14:13.669Z,9.70
2019-01-31T14:16:47.207Z,6.17
2019-01-31T14:19:09.489Z,6.62
2019-01-31T14:21:36.316Z,4.72
2019-01-31T14:24:03.509Z,5.83
2019-01-31T14:26:30.604Z,7.78
2019-01-31T14:28:57.413Z,7.00
2019-01-31T14:31:24.505Z,8.15
2019-01-31T14:33:51.311Z,6.03
2019-01-31T14:36:18.642Z,4.67
2019-01-31T14:38:45.730Z,5.20
2019-01-31T14:41:12.554Z,4.67
2019-01-31T14:43:39.489Z,4.30
2019-01-31T14:46:06.701Z,5.65
2019-01-31T14:48:33.621Z,5.92
2019-01-31T14:51:00.765Z,5.47
2019-01-31T14:53:27.674Z,4.78
2019-01-31T14:55:55.527Z,7.60
2019-01-31T14:58:22.998Z,7.95
2019-01-31T15:00:50.080Z,7.10
2019-01-31T15:03:17.274Z,6.40
2019-01-31T15:05:44.105Z,7.12
2019-01-31T15:08:11.120Z,8.18
2019-01-31T15:10:38.144Z,7.55
2019-01-31T15:13:05.419Z,7.97
2019-01-31T15:15:32.438Z,8.05
2019-01-31T15:17:59.460Z,6.70
2019-01-31T15:20:38.388Z,7.03
2019-01-31T15:23:05.858Z,10.03
2019-01-31T15:25:32.881Z,6.65
2019-01-31T15:27:59.916Z,8.10
2019-01-31T15:30:29.882Z,5.85
2019-01-31T15:32:57.571Z,5.75
2019-01-31T15:35:25.002Z,8.78
2019-01-31T15:37:52.290Z,5.35
2019-01-31T15:40:21.885Z,6.60
2019-01-31T15:42:49.192Z,5.20
2019-01-31T15:45:16.348Z,10.85
2019-01-31T15:47:43.690Z,19.32
2019-01-31T15:50:12.219Z,25.05
2019-01-31T15:52:39.829Z,24.82
2019-01-31T15:55:10.248Z,39.50
2019-01-31T15:57:37.373Z,41.10
2019-01-31T16:00:12.037Z,33.53
2019-01-31T16:02:39.350Z,26.00
2019-01-31T16:05:06.885Z,24.87
2019-01-31T16:07:33.909Z,27.90
2019-01-31T16:10:00.762Z,26.90
2019-01-31T16:12:27.778Z,33.63
2019-01-31T16:14:55.275Z,43.60
2019-01-31T16:17:22.603Z,37.03
2019-01-31T16:19:50.249Z,43.55
2019-01-31T16:22:17.933Z,29.67
2019-01-31T16:24:45.319Z,16.85
2019-01-31T16:27:12.241Z,16.17
2019-01-31T16:29:39.176Z,12.03
2019-01-31T16:32:06.249Z,14.03
2019-01-31T16:34:33.469Z,9.33
2019-01-31T16:37:00.405Z,13.53
2019-01-31T16:39:27.338Z,16.05
2019-01-31T16:41:54.458Z,18.85
2019-01-31T16:44:21.738Z,29.30
2019-01-31T16:46:48.769Z,29.18
2019-01-31T16:49:16.109Z,23.10
2019-01-31T16:51:45.403Z,19.23
2019-01-31T16:54:12.318Z,21.48
2019-01-31T16:56:39.135Z,33.92
2019-01-31T16:59:06.178Z,31.40
2019-01-31T17:01:33.186Z,14.85
2019-01-31T17:04:00.287Z,19.90
2019-01-31T17:06:27.139Z,26.40
2019-01-31T17:08:54.157Z,30.82
2019-01-31T17:11:21.700Z,15.58
2019-01-31T17:13:48.792Z,18.23
2019-01-31T17:16:15.849Z,16.50
2019-01-31T17:18:43.412Z,14.47
2019-01-31T17:21:10.346Z,17.75
2019-01-31T17:23:37.884Z,17.07
2019-01-31T17:26:05.260Z,72.32
2019-01-31T17:28:32.725Z,44.65
2019-01-31T17:30:59.921Z,17.75
2019-01-31T17:33:26.745Z,19.55
2019-01-31T17:35:53.913Z,29.25
2019-01-31T17:38:21.123Z,36.05
2019-01-31T17:40:48.533Z,39.25
2019-01-31T17:43:15.582Z,31.20
2019-01-31T17:45:42.604Z,45.12
2019-01-31T17:48:13.105Z,58.45
2019-01-31T17:50:40.215Z,54.42
2019-01-31T17:53:07.478Z,53.10
2019-01-31T17:55:34.521Z,46.10
2019-01-31T17:58:01.457Z,45.43
2019-01-31T18:00:36.360Z,29.98
2019-01-31T18:03:04.645Z,40.12
2019-01-31T18:05:31.875Z,39.50
2019-01-31T18:07:58.901Z,35.63
2019-01-31T18:10:25.930Z,18.42
2019-01-31T18:12:52.941Z,19.02
2019-01-31T18:15:20.126Z,30.85
2019-01-31T18:17:47.069Z,28.02
2019-01-31T18:20:16.199Z,15.95
2019-01-31T18:22:43.510Z,13.00
2019-01-31T18:25:10.796Z,34.53
2019-01-31T18:27:37.722Z,21.97
2019-01-31T18:30:07.676Z,14.35
2019-01-31T18:32:34.798Z,19.82
2019-01-31T18:35:04.770Z,16.48
2019-01-31T18:37:32.044Z,22.62
2019-01-31T18:39:59.162Z,35.35
2019-01-31T18:42:26.022Z,30.27
2019-01-31T18:44:53.101Z,33.48
2019-01-31T18:47:20.023Z,31.90
2019-01-31T18:49:47.053Z,26.40
2019-01-31T18:52:13.874Z,16.57
2019-01-31T18:54:40.818Z,14.50
2019-01-31T18:57:07.889Z,15.48
2019-01-31T18:59:34.721Z,15.53
2019-01-31T19:02:02.342Z,11.85
2019-01-31T19:04:30.001Z,14.30
2019-01-31T19:06:57.276Z,24.47
2019-01-31T19:09:24.623Z,28.23
2019-01-31T19:11:51.845Z,30.52
2019-01-31T19:14:21.523Z,33.58
2019-01-31T19:16:48.354Z,29.95
2019-01-31T19:19:15.606Z,28.30
2019-01-31T19:21:43.281Z,22.15
2019-01-31T19:24:10.255Z,20.62
2019-01-31T19:26:37.355Z,18.30
2019-01-31T19:29:04.847Z,13.40
2019-01-31T19:31:32.588Z,14.83
2019-01-31T19:33:59.514Z,19.52
2019-01-31T19:36:26.892Z,18.12
2019-01-31T19:38:53.837Z,16.97
2019-01-31T19:41:20.781Z,15.70
2019-01-31T19:43:48.310Z,17.50
2019-01-31T19:46:16.812Z,18.67
2019-01-31T19:48:44.277Z,21.15
2019-01-31T19:51:11.584Z,23.95
2019-01-31T19:53:38.666Z,28.10
2019-01-31T19:56:06.252Z,24.75
2019-01-31T19:58:33.280Z,25.37
2019-01-31T20:01:00.577Z,18.70
2019-01-31T20:03:27.754Z,26.73
2019-01-31T20:05:54.776Z,20.45
2019-01-31T20:08:21.873Z,22.98
2019-01-31T20:10:48.962Z,15.83
2019-01-31T20:13:15.979Z,17.48
2019-01-31T20:15:43.023Z,17.92
2019-01-31T20:18:10.177Z,20.08
2019-01-31T20:20:37.473Z,16.20
2019-01-31T20:23:05.553Z,18.62
2019-01-31T20:25:32.671Z,28.20
2019-01-31T20:27:59.938Z,19.55
2019-01-31T20:30:28.612Z,18.57
2019-01-31T20:32:56.682Z,26.02
2019-01-31T20:35:23.913Z,33.23
2019-01-31T20:37:51.249Z,29.82
2019-01-31T20:40:20.934Z,15.40
2019-01-31T20:42:47.963Z,19.15
2019-01-31T20:45:15.900Z,12.50
2019-01-31T20:47:43.466Z,14.45
2019-01-31T20:50:13.570Z,18.75
2019-01-31T20:52:40.725Z,16.57
2019-01-31T20:55:09.816Z,21.93
2019-01-31T20:57:36.850Z,20.05
2019-01-31T21:00:07.404Z,29.45
2019-01-31T21:02:35.008Z,33.05
2019-01-31T21:05:01.933Z,22.45
2019-01-31T21:07:29.287Z,16.12
2019-01-31T21:09:56.453Z,13.78
2019-01-31T21:12:23.618Z,24.98
2019-01-31T21:14:50.905Z,20.60
2019-01-31T21:17:18.290Z,13.50
2019-01-31T21:19:45.115Z,16.85
2019-01-31T21:22:12.362Z,16.52
2019-01-31T21:24:39.164Z,16.65
2019-01-31T21:27:06.270Z,16.85
2019-01-31T21:29:33.328Z,18.85
2019-01-31T21:32:00.568Z,16.97
2019-01-31T21:34:27.757Z,14.55
2019-01-31T21:36:54.717Z,12.75
2019-01-31T21:39:21.533Z,16.62
2019-01-31T21:41:48.866Z,13.28
2019-01-31T21:44:16.050Z,14.13
2019-01-31T21:46:43.621Z,15.35
2019-01-31T21:49:10.668Z,10.75
2019-01-31T21:51:37.808Z,23.07
2019-01-31T21:54:05.166Z,30.12
2019-01-31T21:56:32.253Z,33.02
2019-01-31T21:58:59.938Z,37.95
2019-01-31T22:01:26.913Z,36.38
2019-01-31T22:03:53.987Z,28.70
2019-01-31T22:06:22.724Z,15.00
2019-01-31T22:08:49.713Z,13.70
2019-01-31T22:11:16.657Z,10.72
2019-01-31T22:13:43.609Z,17.75
2019-01-31T22:16:10.420Z,13.45
2019-01-31T22:18:37.902Z,15.63
2019-01-31T22:21:05.041Z,14.07
2019-01-31T22:23:31.994Z,17.45
2019-01-31T22:25:59.139Z,21.75
2019-01-31T22:28:26.318Z,13.22
2019-01-31T22:30:53.404Z,16.42
2019-01-31T22:33:20.424Z,11.85
2019-01-31T22:35:47.687Z,17.35
2019-01-31T22:38:14.608Z,11.08
2019-01-31T22:40:41.545Z,10.13
2019-01-31T22:43:08.714Z,7.42
2019-01-31T22:45:35.850Z,13.38
2019-01-31T22:48:05.033Z,9.75
2019-01-31T22:50:31.960Z,11.22
2019-01-31T22:52:59.457Z,7.03
2019-01-31T22:55:26.384Z,12.37
2019-01-31T22:57:53.622Z,9.83
2019-01-31T23:00:29.746Z,10.93
2019-01-31T23:02:56.757Z,13.10
2019-01-31T23:05:24.060Z,9.40
2019-01-31T23:07:51.722Z,12.47
2019-01-31T23:10:18.899Z,10.68
2019-01-31T23:12:46.053Z,14.10
2019-01-31T23:15:13.083Z,12.40
2019-01-31T23:17:39.993Z,9.80
2019-01-31T23:20:09.093Z,15.15
2019-01-31T23:22:36.360Z,12.80
2019-01-31T23:25:04.909Z,13.32
2019-01-31T23:27:32.227Z,9.25
2019-01-31T23:29:59.319Z,10.48
2019-01-31T23:32:26.229Z,11.35
2019-01-31T23:34:53.298Z,22.05
2019-01-31T23:37:20.505Z,21.05
2019-01-31T23:39:47.429Z,17.73
2019-01-31T23:42:14.358Z,20.02
2019-01-31T23:44:41.261Z,22.05
2019-01-31T23:47:08.584Z,12.98
2019-01-31T23:49:35.423Z,15.98
2019-01-31T23:52:02.450Z,15.50
2019-01-31T23:54:29.654Z,18.57
2019-01-31T23:56:56.477Z,18.00
2019-01-31T23:59:23.285Z,14.73
